Terminal Aerodrome Forecast
Issued by NWS

Home | Current Version | Previous Version | Text Only | Print | Product List | Glossary On
Versions: 1 2 3 4 5 6 7 8 9 10 11 12 13 14
000
FTAK31 PAJN 291738
TAFAPG
TAF
PAPG 291738Z 2918/3018 VRB04KT P6SM VCSH BKN028 OVC045
     FM300000 04005KT P6SM -SHRA SCT015 OVC025
     FM300600 00000KT P6SM VCSH FEW007 SCT015 BKN025
     FM300900 00000KT 5SM BR BKN007 OVC015
     FM301600 05004KT P6SM SCT008 BKN015 OVC040
      AMD LTD TO CLD VIS AND WIND 3006/3015=

USA.gov is the U.S. government's official web portal to all federal, state and local government web resources and services.